createdAt,value
2022-08-24T00:02:32.484Z,99904.50
2022-08-24T00:06:35.984Z,99900.00
2022-08-24T00:10:39.681Z,99907.22
2022-08-24T00:14:43.239Z,99910.81
2022-08-24T00:18:49.255Z,99917.03
2022-08-24T00:22:52.501Z,99916.97
2022-08-24T00:26:55.886Z,99917.81
2022-08-24T00:30:59.282Z,99920.34
2022-08-24T00:35:03.696Z,99926.47
2022-08-24T00:39:08.100Z,99933.63
2022-08-24T00:43:11.990Z,99938.88
2022-08-24T00:47:19.858Z,99932.53
2022-08-24T00:51:28.660Z,99936.16
2022-08-24T00:55:36.015Z,99937.88
2022-08-24T00:59:47.878Z,99938.97
2022-08-24T01:03:56.635Z,99934.50
2022-08-24T01:08:03.202Z,99939.78
2022-08-24T01:12:07.068Z,99946.06
2022-08-24T01:16:12.833Z,99944.41
2022-08-24T01:20:18.284Z,99943.50
2022-08-24T01:24:23.668Z,99934.63
2022-08-24T01:28:27.858Z,99936.44
2022-08-24T01:32:31.356Z,99947.03
2022-08-24T01:36:38.801Z,99941.66
2022-08-24T01:40:47.732Z,99936.25
2022-08-24T01:44:53.033Z,99944.41
2022-08-24T01:48:58.066Z,99945.34
2022-08-24T01:53:05.598Z,99944.41
2022-08-24T01:57:11.130Z,99947.00
2022-08-24T02:01:20.314Z,99940.72
2022-08-24T02:05:25.642Z,99938.16
2022-08-24T02:09:30.438Z,99936.44
2022-08-24T02:13:40.118Z,99948.03
2022-08-24T02:17:43.447Z,99939.19
2022-08-24T02:21:46.908Z,99933.84
2022-08-24T02:25:50.294Z,99942.78
2022-08-24T02:29:54.752Z,99937.44
2022-08-24T02:33:58.266Z,99941.97
2022-08-24T02:38:01.491Z,99941.00
2022-08-24T02:42:06.457Z,99942.88
2022-08-24T02:46:18.935Z,99948.22
2022-08-24T02:50:22.207Z,99961.63
2022-08-24T02:54:25.249Z,99956.28
2022-08-24T02:58:28.990Z,99958.91
2022-08-24T03:02:34.831Z,99953.56
2022-08-24T03:06:38.257Z,99958.03
2022-08-24T03:10:42.158Z,99950.06
2022-08-24T03:14:45.809Z,99955.41
2022-08-24T03:18:50.668Z,99960.75
2022-08-24T03:22:54.158Z,99961.66
2022-08-24T03:26:57.514Z,99962.63
2022-08-24T03:31:02.971Z,99955.50
2022-08-24T03:35:09.183Z,99966.25
2022-08-24T03:39:12.408Z,99960.03
2022-08-24T03:43:30.566Z,99958.22
2022-08-24T03:47:34.532Z,99957.44
2022-08-24T03:51:40.852Z,99953.97
2022-08-24T03:55:45.594Z,99962.97
2022-08-24T03:59:49.570Z,99979.97
2022-08-24T04:03:54.055Z,99972.00
2022-08-24T04:08:02.862Z,99972.88
2022-08-24T04:12:06.687Z,99974.63
2022-08-24T04:16:12.986Z,99972.81
2022-08-24T04:20:18.398Z,99963.97
2022-08-24T04:24:22.960Z,99963.97
2022-08-24T04:28:28.510Z,99967.59
2022-08-24T04:32:32.799Z,99969.31
2022-08-24T04:36:36.334Z,99970.22
2022-08-24T04:40:42.199Z,99977.28
2022-08-24T04:44:46.276Z,99968.34
2022-08-24T04:48:51.143Z,99975.56
2022-08-24T04:52:54.469Z,99987.03
2022-08-24T04:56:59.598Z,99984.31
2022-08-24T05:01:02.706Z,99984.19
2022-08-24T05:05:06.331Z,99986.75
2022-08-24T05:09:11.207Z,99994.69
2022-08-24T05:13:17.306Z,99980.28
2022-08-24T05:17:20.606Z,99978.44
2022-08-24T05:21:25.796Z,99969.41
2022-08-24T05:25:31.683Z,99976.38
2022-08-24T05:29:37.410Z,99960.22
2022-08-24T05:33:43.207Z,99964.53
2022-08-24T05:37:46.598Z,99971.63
2022-08-24T05:41:51.058Z,99975.88
2022-08-24T05:46:04.724Z,99972.06
2022-08-24T05:50:08.845Z,99972.72
2022-08-24T05:54:13.740Z,99975.16
2022-08-24T05:58:31.337Z,99974.97
2022-08-24T06:02:40.109Z,99961.50
2022-08-24T06:06:43.809Z,99969.28
2022-08-24T06:10:53.128Z,99963.84
2022-08-24T06:14:56.319Z,99974.38
2022-08-24T06:19:01.720Z,99970.50
2022-08-24T06:23:05.619Z,99959.47
2022-08-24T06:27:25.593Z,99967.97
2022-08-24T06:31:34.430Z,99969.38
2022-08-24T06:35:47.075Z,99981.56
2022-08-24T06:39:54.974Z,99989.44
2022-08-24T06:43:59.271Z,99990.13
2022-08-24T06:48:19.429Z,99984.44
2022-08-24T06:52:24.568Z,99996.66
2022-08-24T06:56:28.227Z,99995.53
2022-08-24T07:00:31.776Z,99985.34
2022-08-24T07:04:34.916Z,99973.25
2022-08-24T07:08:58.403Z,99979.03
2022-08-24T07:13:04.049Z,99977.78
2022-08-24T07:17:07.887Z,99963.78
2022-08-24T07:21:11.656Z,99972.97
2022-08-24T07:25:23.621Z,99965.22
2022-08-24T07:29:47.239Z,99984.06
2022-08-24T07:33:52.307Z,99992.59
2022-08-24T07:37:56.527Z,99997.84
2022-08-24T07:42:25.385Z,99991.91
2022-08-24T07:46:25.774Z,99987.94
2022-08-24T07:50:31.694Z,99999.03
2022-08-24T07:54:36.020Z,99993.94
2022-08-24T07:58:41.997Z,99999.81
2022-08-24T08:02:47.334Z,99985.00
2022-08-24T08:06:53.031Z,99970.00
2022-08-24T08:10:57.532Z,99972.13
2022-08-24T08:15:02.083Z,99981.28
2022-08-24T08:19:12.727Z,99987.84
2022-08-24T08:23:37.123Z,99993.66
2022-08-24T08:31:55.994Z,99996.53
2022-08-24T08:36:06.087Z,100002.47
2022-08-24T08:40:23.493Z,99998.97
2022-08-24T08:44:39.904Z,100005.38
2022-08-24T08:49:03.957Z,99995.34
2022-08-24T08:53:56.057Z,99994.59
2022-08-24T08:58:17.475Z,99990.25
2022-08-24T09:02:35.618Z,100000.09
2022-08-24T09:07:08.571Z,99999.56
2022-08-24T09:11:24.910Z,99999.09
2022-08-24T09:15:57.724Z,99996.22
2022-08-24T09:20:17.451Z,99994.47
2022-08-24T09:24:42.459Z,99990.50
2022-08-24T09:29:11.149Z,99988.69
2022-08-24T09:33:21.565Z,99975.59
2022-08-24T09:37:33.883Z,99984.38
2022-08-24T09:42:22.021Z,99998.03
2022-08-24T09:46:59.213Z,99987.09
2022-08-24T09:51:31.666Z,99981.22
2022-08-24T09:56:06.057Z,99981.22
2022-08-24T10:00:19.828Z,99977.53
2022-08-24T10:04:33.044Z,99988.16
2022-08-24T10:08:50.167Z,99982.78
2022-08-24T10:13:04.458Z,99980.91
2022-08-24T10:17:19.316Z,99982.53
2022-08-24T10:21:38.277Z,99980.00
2022-08-24T10:25:52.762Z,99978.91
2022-08-24T10:30:23.902Z,99962.44
2022-08-24T10:34:47.883Z,99962.31
2022-08-24T10:39:16.272Z,99960.22
2022-08-24T10:43:46.638Z,99963.91
2022-08-24T10:48:12.394Z,99958.41
2022-08-24T10:52:48.291Z,99955.31
2022-08-24T10:57:08.172Z,99949.38
2022-08-24T11:01:20.674Z,99955.06
2022-08-24T11:05:31.463Z,99955.44
2022-08-24T11:09:46.995Z,99954.59
2022-08-24T11:13:54.477Z,99954.59
2022-08-24T11:18:00.341Z,99951.91
2022-08-24T11:22:06.147Z,99959.06
2022-08-24T11:26:19.828Z,99955.38
2022-08-24T11:30:28.476Z,99952.00
2022-08-24T11:34:35.995Z,99954.19
2022-08-24T11:38:39.069Z,99950.41
2022-08-24T11:43:05.880Z,99943.19
2022-08-24T11:47:47.957Z,99954.75
2022-08-24T11:52:01.960Z,99945.97
2022-08-24T11:56:15.424Z,99950.97
2022-08-24T12:00:23.638Z,99943.66
2022-08-24T12:04:39.530Z,99944.72
2022-08-24T12:08:52.535Z,99937.47
2022-08-24T12:13:03.348Z,99949.69
2022-08-24T12:17:15.764Z,99950.97
2022-08-24T12:21:22.877Z,99947.38
2022-08-24T12:25:48.430Z,99947.00
2022-08-24T12:29:58.467Z,99932.59
2022-08-24T12:34:09.754Z,99930.66
2022-08-24T12:38:17.090Z,99926.13
2022-08-24T12:42:35.866Z,99936.41
2022-08-24T12:46:40.316Z,99930.03
2022-08-24T12:50:59.106Z,99934.38
2022-08-24T12:55:20.998Z,99922.38
2022-08-24T12:59:28.203Z,99923.66
2022-08-24T13:03:34.368Z,99917.88
2022-08-24T13:07:42.828Z,99897.91
2022-08-24T13:11:46.154Z,99899.63
2022-08-24T13:16:03.116Z,99903.97
2022-08-24T13:20:23.845Z,99898.88
2022-08-24T13:24:43.175Z,99898.28
2022-08-24T13:28:49.410Z,99889.88
2022-08-24T13:33:04.803Z,99908.03
2022-08-24T13:37:18.824Z,99911.84
2022-08-24T13:41:48.671Z,99901.19
2022-08-24T13:45:58.104Z,99885.31
2022-08-24T13:50:11.275Z,99892.00
2022-08-24T13:54:28.418Z,99892.72
2022-08-24T13:58:43.180Z,99892.91
2022-08-24T14:03:03.156Z,99886.13
2022-08-24T14:07:15.664Z,99889.41
2022-08-24T14:11:35.768Z,99902.31
2022-08-24T14:16:10.846Z,99899.63
2022-08-24T14:20:24.360Z,99896.72
2022-08-24T14:24:41.429Z,99898.56
2022-08-24T14:28:49.579Z,99895.94
2022-08-24T14:33:09.323Z,99889.56
2022-08-24T14:37:24.098Z,99887.06
2022-08-24T14:41:55.317Z,99884.47
2022-08-24T14:46:09.688Z,99881.00
2022-08-24T14:50:17.592Z,99884.75
2022-08-24T14:54:32.663Z,99885.53
2022-08-24T14:58:49.138Z,99883.63
2022-08-24T15:03:35.036Z,99883.63
2022-08-24T15:07:38.520Z,99881.88
2022-08-24T15:11:43.693Z,99876.47
2022-08-24T15:15:54.730Z,99877.72
2022-08-24T15:20:09.352Z,99875.97
2022-08-24T15:28:34.178Z,99872.41
2022-08-24T15:32:48.925Z,99870.00
2022-08-24T15:37:02.218Z,99867.22
2022-08-24T15:41:11.901Z,99866.25
2022-08-24T15:45:15.691Z,99864.69
2022-08-24T15:49:25.019Z,99864.69
2022-08-24T15:53:39.206Z,99869.91
2022-08-24T15:57:45.473Z,99869.91
2022-08-24T16:02:14.785Z,99869.91
2022-08-24T16:06:26.873Z,99870.28
2022-08-24T16:10:32.169Z,99868.78
2022-08-24T16:14:40.209Z,99870.22
2022-08-24T16:18:54.022Z,99860.69
2022-08-24T16:23:01.470Z,99867.16
2022-08-24T16:27:07.605Z,99859.31
2022-08-24T16:31:11.463Z,99856.03
2022-08-24T16:35:18.623Z,99852.56
2022-08-24T16:39:23.408Z,99850.84
2022-08-24T16:43:27.734Z,99852.00
2022-08-24T16:47:31.052Z,99855.94
2022-08-24T16:51:34.138Z,99866.25
2022-08-24T16:55:39.004Z,99864.53
2022-08-24T16:59:45.479Z,99860.84
2022-08-24T17:03:49.308Z,99866.66
2022-08-24T17:07:52.435Z,99874.84
2022-08-24T17:11:57.196Z,99879.41
2022-08-24T17:16:00.678Z,99876.59
2022-08-24T17:20:07.635Z,99882.00
2022-08-24T17:24:11.816Z,99883.03
2022-08-24T17:28:19.766Z,99885.75
2022-08-24T17:32:23.277Z,99882.19
2022-08-24T17:36:30.407Z,99892.22
2022-08-24T17:40:35.962Z,99892.31
2022-08-24T17:44:40.655Z,99882.56
2022-08-24T17:48:46.147Z,99883.63
2022-08-24T17:52:49.588Z,99888.44
2022-08-24T17:56:59.534Z,99900.59
2022-08-24T18:01:04.151Z,99897.88
2022-08-24T18:05:10.332Z,99898.25
2022-08-24T18:09:19.276Z,99908.50
2022-08-24T18:13:22.422Z,99910.69
2022-08-24T18:17:33.915Z,99909.16
2022-08-24T18:21:37.111Z,99911.09
2022-08-24T18:25:45.055Z,99923.81
2022-08-24T18:29:54.815Z,99928.53
2022-08-24T18:34:01.774Z,99931.47
2022-08-24T18:38:04.957Z,99945.31
2022-08-24T18:42:09.407Z,99943.00
2022-08-24T18:46:12.903Z,99926.03
2022-08-24T18:50:17.559Z,99936.06
2022-08-24T18:54:23.588Z,99940.72
2022-08-24T18:58:26.873Z,99949.28
2022-08-24T19:02:31.790Z,99950.41
2022-08-24T19:06:36.522Z,99956.91
2022-08-24T19:10:39.713Z,99957.25
2022-08-24T19:14:46.348Z,99961.06
2022-08-24T19:18:51.150Z,99960.28
2022-08-24T19:22:55.827Z,99963.06
2022-08-24T19:27:01.893Z,99958.72
2022-08-24T19:31:10.511Z,99955.41
2022-08-24T19:35:15.866Z,99949.41
2022-08-24T19:39:22.917Z,99954.19
2022-08-24T19:43:35.317Z,99958.97
2022-08-24T19:47:38.875Z,99945.75
2022-08-24T19:51:42.106Z,99947.72
2022-08-24T19:55:50.090Z,99952.50
2022-08-24T19:59:54.103Z,99954.50
2022-08-24T20:03:57.530Z,99953.03
2022-08-24T20:08:03.323Z,99944.41
2022-08-24T20:12:09.100Z,99937.50
2022-08-24T20:16:15.301Z,99946.88
2022-08-24T20:20:21.364Z,99937.25
2022-08-24T20:24:24.659Z,99947.53
2022-08-24T20:28:38.014Z,99953.22
2022-08-24T20:32:41.714Z,99947.22
2022-08-24T20:36:48.758Z,99939.63
2022-08-24T20:40:53.294Z,99935.31
2022-08-24T20:44:59.410Z,99934.63
2022-08-24T20:49:02.941Z,99940.28
2022-08-24T20:53:06.347Z,99927.03
2022-08-24T20:57:12.958Z,99926.25
2022-08-24T21:01:17.806Z,99933.63
2022-08-24T21:05:21.296Z,99931.06
2022-08-24T21:09:24.761Z,99930.44
2022-08-24T21:13:28.352Z,99940.47
2022-08-24T21:17:33.114Z,99936.97
2022-08-24T21:21:39.574Z,99934.38
2022-08-24T21:25:45.071Z,99927.22
2022-08-24T21:29:48.298Z,99931.03
2022-08-24T21:34:09.887Z,99931.25
2022-08-24T21:38:14.559Z,99929.47
2022-08-24T21:42:19.993Z,99932.31
2022-08-24T21:46:29.177Z,99932.31
2022-08-24T21:50:33.859Z,99927.00
2022-08-24T21:54:36.971Z,99926.28
2022-08-24T21:58:39.995Z,99921.06
2022-08-24T22:02:43.205Z,99916.53
2022-08-24T22:06:47.890Z,99919.16
2022-08-24T22:10:50.979Z,99921.13
2022-08-24T22:14:54.785Z,99928.34
2022-08-24T22:18:57.886Z,99928.34
2022-08-24T22:23:02.615Z,99928.34
2022-08-24T22:27:11.865Z,99930.06
2022-08-24T22:31:18.276Z,99926.56
2022-08-24T22:35:22.588Z,99925.72
2022-08-24T22:39:28.759Z,99929.25
2022-08-24T22:43:52.484Z,99923.03
2022-08-24T22:47:56.420Z,99915.97
2022-08-24T22:52:00.680Z,99914.31
2022-08-24T22:56:19.882Z,99904.50
2022-08-24T23:00:23.880Z,99896.53
2022-08-24T23:04:32.227Z,99897.53
2022-08-24T23:08:36.369Z,99898.41
2022-08-24T23:12:45.162Z,99891.31
2022-08-24T23:16:54.319Z,99894.94
2022-08-24T23:21:03.529Z,99895.97
2022-08-24T23:25:10.142Z,99896.97
2022-08-24T23:29:15.849Z,99883.59
2022-08-24T23:33:19.357Z,99886.38
2022-08-24T23:37:23.342Z,99890.09
2022-08-24T23:41:29.033Z,99882.25
2022-08-24T23:45:34.024Z,99877.00
2022-08-24T23:49:37.904Z,99886.84
2022-08-24T23:53:48.070Z,99875.28
2022-08-24T23:57:53.802Z,99879.56
